LYTV

Details ICAO LYTV (TIV)
Name Tivat
Region Serbia and Montenegro
Timezone Europe/Podgorica (UTC+2.0)
Plans Departing 737
Arriving 1194
Stats Elevation 20 ft / 6 m (AMSL)
Location 42.404700° 18.723300°
Runways 1
Magnetic Variation 4.452° E
Sunrise 2020-09-20 04:31:47 UTC / 2020-09-20 06:31:47 Local
Sunset 2020-09-20 16:47:50 UTC / 2020-09-20 18:47:50 Local
Advertisement - Login to hide

Runways

ID Width Length Bearing (true/mag) Surface Threshold Overrun Markings Lighting
14 148 ft / 45 m 8,210 ft / 2,503 m 138.97° / 134.52° ASPHALT 0 ft / 0 m 0 ft / 0 m APP CENTERLINE EDGE THRESHOLD MALSF
32 148 ft / 45 m 8,210 ft / 2,503 m 318.99° / 314.54° ASPHALT 0 ft / 0 m 0 ft / 0 m APP CENTERLINE EDGE THRESHOLD MALSF

Approach Navaids

Runway Type Ident Frequency Range Bearing (true/mag) Slope Elevation
32 DME TIV 111.30 MHz 18 nm / 33 km - - 49 ft / 15 m (AMSL)
32 LOC-LOC TIV 111.30 MHz 18 nm / 33 km 339.00° / 334.55° - 56 ft / 17 m (AMSL)

Map

Weather


0- 5 10 15 20 25 30 35+ Temperature / °C

Clouds and Precipitation
Forecast for 2020-09-20 06:00 UTC. Updated 4 hours ago

Ground ~20,000 ft ~40,000 ft Winds

METAR

LYTV 200730Z 00000KT CAVOK 26/16 Q1015 NOSIG

TAF

TAF LYTV 200500Z 2006/2106 22006KT CAVOK TX29/2013Z TN15/2103Z

Frequencies

Tower 118.00 MHz Tivat tower
Approach 118.00 MHz Tivat Approach
Warning: Do not use this data for real-world aviation or navigation. No guarantee of current accuracy is given.